sensor_id;sensor_type;location;lat;lon;timestamp;P1;durP1;ratioP1;P2;durP2;ratioP2
4355;SDS011;64374;51.482;7.408;2022-11-20T00:01:41;27.40;;;17.27;;
4355;SDS011;64374;51.482;7.408;2022-11-20T00:04:10;26.10;;;16.70;;
4355;SDS011;64374;51.482;7.408;2022-11-20T00:06:38;26.80;;;17.67;;
4355;SDS011;64374;51.482;7.408;2022-11-20T00:09:09;26.83;;;16.90;;
4355;SDS011;64374;51.482;7.408;2022-11-20T00:11:42;25.27;;;16.93;;
4355;SDS011;64374;51.482;7.408;2022-11-20T00:14:11;34.80;;;18.43;;
4355;SDS011;64374;51.482;7.408;2022-11-20T00:16:43;30.03;;;18.23;;
4355;SDS011;64374;51.482;7.408;2022-11-20T00:19:13;26.80;;;17.73;;
4355;SDS011;64374;51.482;7.408;2022-11-20T00:21:42;30.77;;;19.00;;
4355;SDS011;64374;51.482;7.408;2022-11-20T00:24:10;30.27;;;17.47;;
4355;SDS011;64374;51.482;7.408;2022-11-20T00:26:40;33.90;;;19.47;;
4355;SDS011;64374;51.482;7.408;2022-11-20T00:29:13;27.27;;;18.10;;
4355;SDS011;64374;51.482;7.408;2022-11-20T00:31:41;28.50;;;17.37;;
4355;SDS011;64374;51.482;7.408;2022-11-20T00:34:12;24.77;;;15.80;;
4355;SDS011;64374;51.482;7.408;2022-11-20T00:36:42;26.90;;;17.27;;
4355;SDS011;64374;51.482;7.408;2022-11-20T00:39:12;40.63;;;20.97;;
4355;SDS011;64374;51.482;7.408;2022-11-20T00:41:40;26.50;;;17.47;;
4355;SDS011;64374;51.482;7.408;2022-11-20T00:44:24;31.50;;;18.90;;
4355;SDS011;64374;51.482;7.408;2022-11-20T00:46:52;31.60;;;17.87;;
4355;SDS011;64374;51.482;7.408;2022-11-20T00:49:21;30.30;;;18.03;;
4355;SDS011;64374;51.482;7.408;2022-11-20T00:51:49;29.23;;;16.97;;
4355;SDS011;64374;51.482;7.408;2022-11-20T00:54:18;23.00;;;16.30;;
4355;SDS011;64374;51.482;7.408;2022-11-20T00:56:47;26.83;;;15.80;;
4355;SDS011;64374;51.482;7.408;2022-11-20T00:59:15;24.27;;;16.03;;
4355;SDS011;64374;51.482;7.408;2022-11-20T01:01:53;22.63;;;14.93;;
4355;SDS011;64374;51.482;7.408;2022-11-20T01:04:21;27.50;;;16.20;;
4355;SDS011;64374;51.482;7.408;2022-11-20T01:06:50;26.77;;;16.07;;
4355;SDS011;64374;51.482;7.408;2022-11-20T01:09:19;24.27;;;15.60;;
4355;SDS011;64374;51.482;7.408;2022-11-20T01:11:47;24.70;;;15.63;;
4355;SDS011;64374;51.482;7.408;2022-11-20T01:14:18;24.90;;;16.97;;
4355;SDS011;64374;51.482;7.408;2022-11-20T01:16:48;25.83;;;15.10;;
4355;SDS011;64374;51.482;7.408;2022-11-20T01:19:22;28.40;;;17.63;;
4355;SDS011;64374;51.482;7.408;2022-11-20T01:21:52;25.70;;;16.90;;
4355;SDS011;64374;51.482;7.408;2022-11-20T01:24:21;23.00;;;14.97;;
4355;SDS011;64374;51.482;7.408;2022-11-20T01:26:51;21.70;;;15.70;;
4355;SDS011;64374;51.482;7.408;2022-11-20T01:29:22;26.90;;;14.63;;
4355;SDS011;64374;51.482;7.408;2022-11-20T01:31:52;28.00;;;15.30;;
4355;SDS011;64374;51.482;7.408;2022-11-20T01:34:22;29.10;;;16.40;;
4355;SDS011;64374;51.482;7.408;2022-11-20T01:36:53;27.17;;;15.87;;
4355;SDS011;64374;51.482;7.408;2022-11-20T01:39:23;24.30;;;14.90;;
4355;SDS011;64374;51.482;7.408;2022-11-20T01:41:55;24.70;;;14.80;;
4355;SDS011;64374;51.482;7.408;2022-11-20T01:44:51;24.17;;;15.43;;
4355;SDS011;64374;51.482;7.408;2022-11-20T01:47:24;27.27;;;14.50;;
4355;SDS011;64374;51.482;7.408;2022-11-20T01:49:59;23.50;;;16.23;;
4355;SDS011;64374;51.482;7.408;2022-11-20T01:52:37;23.93;;;15.30;;
4355;SDS011;64374;51.482;7.408;2022-11-20T01:55:09;26.03;;;14.43;;
4355;SDS011;64374;51.482;7.408;2022-11-20T01:57:42;28.93;;;17.10;;
4355;SDS011;64374;51.482;7.408;2022-11-20T02:00:13;27.40;;;15.40;;
4355;SDS011;64374;51.482;7.408;2022-11-20T02:02:44;26.63;;;16.30;;
4355;SDS011;64374;51.482;7.408;2022-11-20T02:05:20;28.27;;;16.43;;
4355;SDS011;64374;51.482;7.408;2022-11-20T02:07:52;24.80;;;16.10;;
4355;SDS011;64374;51.482;7.408;2022-11-20T02:10:21;26.63;;;15.60;;
4355;SDS011;64374;51.482;7.408;2022-11-20T02:12:50;22.40;;;16.10;;
4355;SDS011;64374;51.482;7.408;2022-11-20T02:15:36;31.07;;;17.73;;
4355;SDS011;64374;51.482;7.408;2022-11-20T02:18:05;25.90;;;16.47;;
4355;SDS011;64374;51.482;7.408;2022-11-20T02:20:36;24.67;;;15.57;;
4355;SDS011;64374;51.482;7.408;2022-11-20T02:23:05;25.97;;;16.57;;
4355;SDS011;64374;51.482;7.408;2022-11-20T02:25:41;26.93;;;16.57;;
4355;SDS011;64374;51.482;7.408;2022-11-20T02:28:10;25.47;;;15.53;;
4355;SDS011;64374;51.482;7.408;2022-11-20T02:30:39;27.40;;;16.00;;
4355;SDS011;64374;51.482;7.408;2022-11-20T02:33:10;23.80;;;15.20;;
4355;SDS011;64374;51.482;7.408;2022-11-20T02:35:39;25.13;;;15.73;;
4355;SDS011;64374;51.482;7.408;2022-11-20T02:38:14;23.40;;;15.83;;
4355;SDS011;64374;51.482;7.408;2022-11-20T02:40:44;27.30;;;17.10;;
4355;SDS011;64374;51.482;7.408;2022-11-20T02:43:20;28.30;;;17.50;;
4355;SDS011;64374;51.482;7.408;2022-11-20T02:45:54;23.03;;;14.70;;
4355;SDS011;64374;51.482;7.408;2022-11-20T02:48:23;30.30;;;15.60;;
4355;SDS011;64374;51.482;7.408;2022-11-20T02:50:56;27.10;;;15.70;;
4355;SDS011;64374;51.482;7.408;2022-11-20T02:53:24;26.33;;;16.77;;
4355;SDS011;64374;51.482;7.408;2022-11-20T02:55:54;24.67;;;15.50;;
4355;SDS011;64374;51.482;7.408;2022-11-20T02:58:23;23.50;;;16.20;;
4355;SDS011;64374;51.482;7.408;2022-11-20T03:00:52;24.40;;;14.63;;
4355;SDS011;64374;51.482;7.408;2022-11-20T03:03:22;21.60;;;15.13;;
4355;SDS011;64374;51.482;7.408;2022-11-20T03:05:51;23.80;;;15.37;;
4355;SDS011;64374;51.482;7.408;2022-11-20T03:08:22;26.93;;;15.77;;
4355;SDS011;64374;51.482;7.408;2022-11-20T03:10:51;26.40;;;15.50;;
4355;SDS011;64374;51.482;7.408;2022-11-20T03:13:20;22.80;;;13.67;;
4355;SDS011;64374;51.482;7.408;2022-11-20T03:15:49;25.10;;;13.10;;
4355;SDS011;64374;51.482;7.408;2022-11-20T03:18:18;26.13;;;15.57;;
4355;SDS011;64374;51.482;7.408;2022-11-20T03:20:46;22.80;;;14.50;;
4355;SDS011;64374;51.482;7.408;2022-11-20T03:23:14;21.07;;;13.50;;
4355;SDS011;64374;51.482;7.408;2022-11-20T03:25:44;25.10;;;15.13;;
4355;SDS011;64374;51.482;7.408;2022-11-20T03:28:31;20.10;;;13.67;;
4355;SDS011;64374;51.482;7.408;2022-11-20T03:31:04;23.90;;;14.70;;
4355;SDS011;64374;51.482;7.408;2022-11-20T03:33:33;26.43;;;15.37;;
4355;SDS011;64374;51.482;7.408;2022-11-20T03:36:02;21.03;;;13.63;;
4355;SDS011;64374;51.482;7.408;2022-11-20T03:38:34;23.13;;;14.60;;
4355;SDS011;64374;51.482;7.408;2022-11-20T03:41:04;21.40;;;14.37;;
4355;SDS011;64374;51.482;7.408;2022-11-20T03:43:37;21.23;;;14.03;;
4355;SDS011;64374;51.482;7.408;2022-11-20T03:46:05;24.20;;;14.57;;
4355;SDS011;64374;51.482;7.408;2022-11-20T03:48:34;23.63;;;14.13;;
4355;SDS011;64374;51.482;7.408;2022-11-20T03:51:06;25.10;;;15.37;;
4355;SDS011;64374;51.482;7.408;2022-11-20T03:53:36;25.53;;;14.50;;
4355;SDS011;64374;51.482;7.408;2022-11-20T03:56:05;22.10;;;13.60;;
4355;SDS011;64374;51.482;7.408;2022-11-20T03:58:36;24.37;;;15.17;;
4355;SDS011;64374;51.482;7.408;2022-11-20T04:01:07;25.63;;;15.37;;
4355;SDS011;64374;51.482;7.408;2022-11-20T04:03:37;19.60;;;13.80;;
4355;SDS011;64374;51.482;7.408;2022-11-20T04:06:08;22.90;;;13.80;;
4355;SDS011;64374;51.482;7.408;2022-11-20T04:08:38;21.53;;;14.00;;
4355;SDS011;64374;51.482;7.408;2022-11-20T04:11:13;23.87;;;13.30;;
4355;SDS011;64374;51.482;7.408;2022-11-20T04:13:45;24.93;;;14.83;;
4355;SDS011;64374;51.482;7.408;2022-11-20T04:16:15;19.00;;;12.37;;
4355;SDS011;64374;51.482;7.408;2022-11-20T04:18:44;24.50;;;13.27;;
4355;SDS011;64374;51.482;7.408;2022-11-20T04:21:13;21.10;;;13.97;;
4355;SDS011;64374;51.482;7.408;2022-11-20T04:23:41;19.50;;;11.80;;
4355;SDS011;64374;51.482;7.408;2022-11-20T04:26:10;20.80;;;12.73;;
4355;SDS011;64374;51.482;7.408;2022-11-20T04:28:43;23.17;;;13.50;;
4355;SDS011;64374;51.482;7.408;2022-11-20T04:31:12;16.93;;;11.63;;
4355;SDS011;64374;51.482;7.408;2022-11-20T04:33:45;21.40;;;12.90;;
4355;SDS011;64374;51.482;7.408;2022-11-20T04:36:14;21.90;;;13.43;;
4355;SDS011;64374;51.482;7.408;2022-11-20T04:38:44;19.93;;;13.00;;
4355;SDS011;64374;51.482;7.408;2022-11-20T04:41:16;19.53;;;12.63;;
4355;SDS011;64374;51.482;7.408;2022-11-20T04:43:48;18.10;;;11.90;;
4355;SDS011;64374;51.482;7.408;2022-11-20T04:46:18;20.77;;;14.23;;
4355;SDS011;64374;51.482;7.408;2022-11-20T04:48:48;22.90;;;13.90;;
4355;SDS011;64374;51.482;7.408;2022-11-20T04:51:16;19.33;;;11.63;;
4355;SDS011;64374;51.482;7.408;2022-11-20T04:53:47;20.50;;;13.60;;
4355;SDS011;64374;51.482;7.408;2022-11-20T04:56:18;18.40;;;13.00;;
4355;SDS011;64374;51.482;7.408;2022-11-20T04:58:51;19.03;;;13.23;;
4355;SDS011;64374;51.482;7.408;2022-11-20T05:01:22;18.83;;;12.80;;
4355;SDS011;64374;51.482;7.408;2022-11-20T05:03:54;19.03;;;11.60;;
4355;SDS011;64374;51.482;7.408;2022-11-20T05:06:22;18.33;;;11.57;;
4355;SDS011;64374;51.482;7.408;2022-11-20T05:08:50;16.37;;;11.40;;
4355;SDS011;64374;51.482;7.408;2022-11-20T05:11:19;19.97;;;13.27;;
4355;SDS011;64374;51.482;7.408;2022-11-20T05:13:50;16.10;;;11.53;;
4355;SDS011;64374;51.482;7.408;2022-11-20T05:16:20;21.50;;;12.93;;
4355;SDS011;64374;51.482;7.408;2022-11-20T05:18:51;16.73;;;11.27;;
4355;SDS011;64374;51.482;7.408;2022-11-20T05:21:21;22.13;;;11.50;;
4355;SDS011;64374;51.482;7.408;2022-11-20T05:23:50;15.87;;;10.97;;
4355;SDS011;64374;51.482;7.408;2022-11-20T05:26:19;17.63;;;11.13;;
4355;SDS011;64374;51.482;7.408;2022-11-20T05:28:52;19.13;;;12.80;;
4355;SDS011;64374;51.482;7.408;2022-11-20T05:31:21;20.07;;;11.83;;
4355;SDS011;64374;51.482;7.408;2022-11-20T05:33:54;18.03;;;11.50;;
4355;SDS011;64374;51.482;7.408;2022-11-20T05:36:24;20.33;;;12.13;;
4355;SDS011;64374;51.482;7.408;2022-11-20T05:38:52;20.97;;;12.00;;
4355;SDS011;64374;51.482;7.408;2022-11-20T05:41:27;19.80;;;11.40;;
4355;SDS011;64374;51.482;7.408;2022-11-20T05:43:58;19.70;;;12.43;;
4355;SDS011;64374;51.482;7.408;2022-11-20T05:46:26;18.83;;;12.50;;
4355;SDS011;64374;51.482;7.408;2022-11-20T05:48:57;18.63;;;12.97;;
4355;SDS011;64374;51.482;7.408;2022-11-20T05:51:26;20.07;;;12.40;;
4355;SDS011;64374;51.482;7.408;2022-11-20T05:53:55;17.93;;;12.27;;
4355;SDS011;64374;51.482;7.408;2022-11-20T05:56:32;18.87;;;11.73;;
4355;SDS011;64374;51.482;7.408;2022-11-20T05:59:02;21.40;;;12.10;;
4355;SDS011;64374;51.482;7.408;2022-11-20T06:01:30;17.47;;;10.93;;
4355;SDS011;64374;51.482;7.408;2022-11-20T06:03:59;19.43;;;13.53;;
4355;SDS011;64374;51.482;7.408;2022-11-20T06:06:28;16.60;;;10.27;;
4355;SDS011;64374;51.482;7.408;2022-11-20T06:08:57;16.30;;;11.03;;
4355;SDS011;64374;51.482;7.408;2022-11-20T06:11:28;18.37;;;11.80;;
4355;SDS011;64374;51.482;7.408;2022-11-20T06:13:57;19.13;;;11.93;;
4355;SDS011;64374;51.482;7.408;2022-11-20T06:16:26;17.43;;;10.73;;
4355;SDS011;64374;51.482;7.408;2022-11-20T06:18:57;20.20;;;12.73;;
4355;SDS011;64374;51.482;7.408;2022-11-20T06:21:32;22.37;;;11.10;;
4355;SDS011;64374;51.482;7.408;2022-11-20T06:24:01;21.03;;;11.60;;
4355;SDS011;64374;51.482;7.408;2022-11-20T06:26:29;16.60;;;11.00;;
4355;SDS011;64374;51.482;7.408;2022-11-20T06:28:58;15.70;;;10.87;;
4355;SDS011;64374;51.482;7.408;2022-11-20T06:31:28;16.50;;;10.07;;
4355;SDS011;64374;51.482;7.408;2022-11-20T06:33:59;20.20;;;12.03;;
4355;SDS011;64374;51.482;7.408;2022-11-20T06:36:27;18.90;;;11.83;;
4355;SDS011;64374;51.482;7.408;2022-11-20T06:38:56;18.10;;;12.07;;
4355;SDS011;64374;51.482;7.408;2022-11-20T06:41:24;21.93;;;11.73;;
4355;SDS011;64374;51.482;7.408;2022-11-20T06:43:53;20.70;;;11.27;;
4355;SDS011;64374;51.482;7.408;2022-11-20T06:46:21;18.43;;;11.67;;
4355;SDS011;64374;51.482;7.408;2022-11-20T06:48:51;22.17;;;12.00;;
4355;SDS011;64374;51.482;7.408;2022-11-20T06:51:19;19.50;;;11.10;;
4355;SDS011;64374;51.482;7.408;2022-11-20T06:53:48;21.73;;;12.00;;
4355;SDS011;64374;51.482;7.408;2022-11-20T06:56:16;19.63;;;12.47;;
4355;SDS011;64374;51.482;7.408;2022-11-20T06:58:44;20.20;;;13.23;;
4355;SDS011;64374;51.482;7.408;2022-11-20T07:01:13;19.13;;;11.93;;
4355;SDS011;64374;51.482;7.408;2022-11-20T07:03:42;21.93;;;12.07;;
4355;SDS011;64374;51.482;7.408;2022-11-20T07:06:18;20.60;;;12.43;;
4355;SDS011;64374;51.482;7.408;2022-11-20T07:08:46;19.77;;;13.00;;
4355;SDS011;64374;51.482;7.408;2022-11-20T07:11:15;22.27;;;12.20;;
4355;SDS011;64374;51.482;7.408;2022-11-20T07:13:43;21.80;;;13.87;;
4355;SDS011;64374;51.482;7.408;2022-11-20T07:16:11;24.77;;;14.60;;
4355;SDS011;64374;51.482;7.408;2022-11-20T07:18:40;20.80;;;12.70;;
4355;SDS011;64374;51.482;7.408;2022-11-20T07:21:15;21.57;;;13.17;;
4355;SDS011;64374;51.482;7.408;2022-11-20T07:23:48;22.77;;;13.70;;
4355;SDS011;64374;51.482;7.408;2022-11-20T07:26:18;22.30;;;13.90;;
4355;SDS011;64374;51.482;7.408;2022-11-20T07:28:47;24.53;;;12.57;;
4355;SDS011;64374;51.482;7.408;2022-11-20T07:31:15;23.60;;;13.50;;
4355;SDS011;64374;51.482;7.408;2022-11-20T07:33:47;25.20;;;14.27;;
4355;SDS011;64374;51.482;7.408;2022-11-20T07:36:15;21.23;;;13.33;;
4355;SDS011;64374;51.482;7.408;2022-11-20T07:38:48;27.80;;;12.33;;
4355;SDS011;64374;51.482;7.408;2022-11-20T07:41:17;22.40;;;11.27;;
4355;SDS011;64374;51.482;7.408;2022-11-20T07:43:45;19.70;;;13.13;;
4355;SDS011;64374;51.482;7.408;2022-11-20T07:46:14;21.47;;;12.10;;
4355;SDS011;64374;51.482;7.408;2022-11-20T07:48:43;24.90;;;13.27;;
4355;SDS011;64374;51.482;7.408;2022-11-20T07:51:11;24.47;;;14.17;;
4355;SDS011;64374;51.482;7.408;2022-11-20T07:53:41;24.97;;;13.73;;
4355;SDS011;64374;51.482;7.408;2022-11-20T07:56:10;28.13;;;13.20;;
4355;SDS011;64374;51.482;7.408;2022-11-20T07:58:40;23.50;;;13.47;;
4355;SDS011;64374;51.482;7.408;2022-11-20T08:01:11;22.50;;;12.90;;
4355;SDS011;64374;51.482;7.408;2022-11-20T08:03:39;21.13;;;12.30;;
4355;SDS011;64374;51.482;7.408;2022-11-20T08:06:10;18.10;;;12.13;;
4355;SDS011;64374;51.482;7.408;2022-11-20T08:08:42;26.30;;;14.93;;
4355;SDS011;64374;51.482;7.408;2022-11-20T08:11:11;20.97;;;13.80;;
4355;SDS011;64374;51.482;7.408;2022-11-20T08:13:57;17.57;;;12.03;;
4355;SDS011;64374;51.482;7.408;2022-11-20T08:16:40;21.10;;;13.53;;
4355;SDS011;64374;51.482;7.408;2022-11-20T08:19:10;19.70;;;13.77;;
4355;SDS011;64374;51.482;7.408;2022-11-20T08:21:40;23.03;;;12.70;;
4355;SDS011;64374;51.482;7.408;2022-11-20T08:24:12;18.00;;;12.13;;
4355;SDS011;64374;51.482;7.408;2022-11-20T08:26:41;21.10;;;13.57;;
4355;SDS011;64374;51.482;7.408;2022-11-20T08:29:09;18.97;;;11.83;;
4355;SDS011;64374;51.482;7.408;2022-11-20T08:31:37;22.60;;;12.43;;
4355;SDS011;64374;51.482;7.408;2022-11-20T08:34:06;22.53;;;13.43;;
4355;SDS011;64374;51.482;7.408;2022-11-20T08:36:36;22.90;;;13.70;;
4355;SDS011;64374;51.482;7.408;2022-11-20T08:39:05;18.37;;;12.60;;
4355;SDS011;64374;51.482;7.408;2022-11-20T08:41:37;22.27;;;13.37;;
4355;SDS011;64374;51.482;7.408;2022-11-20T08:44:06;21.37;;;15.07;;
4355;SDS011;64374;51.482;7.408;2022-11-20T08:46:35;19.03;;;13.30;;
4355;SDS011;64374;51.482;7.408;2022-11-20T08:49:05;20.10;;;13.13;;
4355;SDS011;64374;51.482;7.408;2022-11-20T08:51:35;19.80;;;13.20;;
4355;SDS011;64374;51.482;7.408;2022-11-20T08:54:06;21.13;;;13.20;;
4355;SDS011;64374;51.482;7.408;2022-11-20T08:56:35;16.53;;;11.73;;
4355;SDS011;64374;51.482;7.408;2022-11-20T08:59:07;21.43;;;12.90;;
4355;SDS011;64374;51.482;7.408;2022-11-20T09:01:56;15.37;;;10.50;;
4355;SDS011;64374;51.482;7.408;2022-11-20T09:04:25;16.63;;;9.50;;
4355;SDS011;64374;51.482;7.408;2022-11-20T09:06:53;19.50;;;8.97;;
4355;SDS011;64374;51.482;7.408;2022-11-20T09:09:22;16.70;;;10.40;;
4355;SDS011;64374;51.482;7.408;2022-11-20T09:11:51;17.43;;;9.67;;
4355;SDS011;64374;51.482;7.408;2022-11-20T09:14:21;18.60;;;11.53;;
4355;SDS011;64374;51.482;7.408;2022-11-20T09:16:52;23.53;;;12.47;;
4355;SDS011;64374;51.482;7.408;2022-11-20T09:19:23;22.03;;;11.20;;
4355;SDS011;64374;51.482;7.408;2022-11-20T09:22:08;16.60;;;11.00;;
4355;SDS011;64374;51.482;7.408;2022-11-20T09:24:37;19.93;;;11.87;;
4355;SDS011;64374;51.482;7.408;2022-11-20T09:27:06;17.27;;;12.57;;
4355;SDS011;64374;51.482;7.408;2022-11-20T09:29:35;22.63;;;12.93;;
4355;SDS011;64374;51.482;7.408;2022-11-20T09:32:05;20.10;;;13.10;;
4355;SDS011;64374;51.482;7.408;2022-11-20T09:34:34;18.30;;;11.50;;
4355;SDS011;64374;51.482;7.408;2022-11-20T09:37:02;24.40;;;12.60;;
4355;SDS011;64374;51.482;7.408;2022-11-20T09:39:33;23.37;;;13.70;;
4355;SDS011;64374;51.482;7.408;2022-11-20T09:42:10;19.57;;;11.90;;
4355;SDS011;64374;51.482;7.408;2022-11-20T09:44:53;21.50;;;12.80;;
4355;SDS011;64374;51.482;7.408;2022-11-20T09:47:36;26.97;;;12.40;;
4355;SDS011;64374;51.482;7.408;2022-11-20T09:50:22;19.07;;;12.60;;
4355;SDS011;64374;51.482;7.408;2022-11-20T09:53:01;21.80;;;12.53;;
4355;SDS011;64374;51.482;7.408;2022-11-20T09:55:39;25.27;;;13.57;;
4355;SDS011;64374;51.482;7.408;2022-11-20T09:58:12;17.10;;;11.43;;
4355;SDS011;64374;51.482;7.408;2022-11-20T10:00:45;23.70;;;12.30;;
4355;SDS011;64374;51.482;7.408;2022-11-20T10:03:16;25.13;;;14.17;;
4355;SDS011;64374;51.482;7.408;2022-11-20T10:05:52;17.40;;;11.13;;
4355;SDS011;64374;51.482;7.408;2022-11-20T10:08:24;18.53;;;12.50;;
4355;SDS011;64374;51.482;7.408;2022-11-20T10:10:59;20.37;;;11.90;;
4355;SDS011;64374;51.482;7.408;2022-11-20T10:13:36;20.63;;;11.67;;
4355;SDS011;64374;51.482;7.408;2022-11-20T10:16:21;21.57;;;13.33;;
4355;SDS011;64374;51.482;7.408;2022-11-20T10:19:05;20.53;;;11.90;;
4355;SDS011;64374;51.482;7.408;2022-11-20T10:21:55;20.40;;;12.13;;
4355;SDS011;64374;51.482;7.408;2022-11-20T10:24:44;14.87;;;9.70;;
4355;SDS011;64374;51.482;7.408;2022-11-20T10:30:16;16.63;;;10.03;;
4355;SDS011;64374;51.482;7.408;2022-11-20T10:32:50;17.17;;;10.40;;
4355;SDS011;64374;51.482;7.408;2022-11-20T10:35:25;12.60;;;9.40;;
4355;SDS011;64374;51.482;7.408;2022-11-20T10:38:00;17.83;;;10.43;;
4355;SDS011;64374;51.482;7.408;2022-11-20T10:40:32;18.90;;;10.30;;
4355;SDS011;64374;51.482;7.408;2022-11-20T10:43:07;14.00;;;10.90;;
4355;SDS011;64374;51.482;7.408;2022-11-20T10:45:43;14.77;;;10.07;;
4355;SDS011;64374;51.482;7.408;2022-11-20T10:48:22;17.13;;;10.43;;
4355;SDS011;64374;51.482;7.408;2022-11-20T10:50:55;11.60;;;7.53;;
4355;SDS011;64374;51.482;7.408;2022-11-20T10:53:45;13.50;;;8.27;;
4355;SDS011;64374;51.482;7.408;2022-11-20T10:56:23;12.27;;;8.90;;
4355;SDS011;64374;51.482;7.408;2022-11-20T10:59:03;11.70;;;8.03;;
4355;SDS011;64374;51.482;7.408;2022-11-20T11:01:40;14.20;;;8.70;;
4355;SDS011;64374;51.482;7.408;2022-11-20T11:04:16;11.83;;;7.50;;
4355;SDS011;64374;51.482;7.408;2022-11-20T11:06:55;11.60;;;7.67;;
4355;SDS011;64374;51.482;7.408;2022-11-20T11:09:30;12.90;;;9.10;;
4355;SDS011;64374;51.482;7.408;2022-11-20T11:12:01;15.30;;;9.30;;
4355;SDS011;64374;51.482;7.408;2022-11-20T11:14:41;15.60;;;8.50;;
4355;SDS011;64374;51.482;7.408;2022-11-20T11:17:22;16.73;;;8.60;;
4355;SDS011;64374;51.482;7.408;2022-11-20T11:20:04;14.77;;;9.23;;
4355;SDS011;64374;51.482;7.408;2022-11-20T11:22:42;16.40;;;8.93;;
4355;SDS011;64374;51.482;7.408;2022-11-20T11:25:25;12.67;;;8.67;;
4355;SDS011;64374;51.482;7.408;2022-11-20T11:27:57;17.73;;;10.97;;
4355;SDS011;64374;51.482;7.408;2022-11-20T11:30:28;12.20;;;9.10;;
4355;SDS011;64374;51.482;7.408;2022-11-20T11:33:02;14.17;;;9.47;;
4355;SDS011;64374;51.482;7.408;2022-11-20T11:35:38;14.37;;;9.57;;
4355;SDS011;64374;51.482;7.408;2022-11-20T11:38:17;13.30;;;9.30;;
4355;SDS011;64374;51.482;7.408;2022-11-20T11:40:49;13.93;;;9.50;;
4355;SDS011;64374;51.482;7.408;2022-11-20T11:43:22;12.93;;;9.30;;
4355;SDS011;64374;51.482;7.408;2022-11-20T11:46:28;13.43;;;9.60;;
4355;SDS011;64374;51.482;7.408;2022-11-20T11:49:00;13.90;;;8.20;;
4355;SDS011;64374;51.482;7.408;2022-11-20T11:51:33;17.13;;;10.77;;
4355;SDS011;64374;51.482;7.408;2022-11-20T11:54:14;14.83;;;10.27;;
4355;SDS011;64374;51.482;7.408;2022-11-20T11:56:46;13.63;;;9.63;;
4355;SDS011;64374;51.482;7.408;2022-11-20T11:59:17;13.70;;;9.00;;
4355;SDS011;64374;51.482;7.408;2022-11-20T12:01:54;13.03;;;8.80;;
4355;SDS011;64374;51.482;7.408;2022-11-20T12:04:38;14.20;;;9.40;;
4355;SDS011;64374;51.482;7.408;2022-11-20T12:07:15;14.20;;;8.83;;
4355;SDS011;64374;51.482;7.408;2022-11-20T12:10:13;15.07;;;9.57;;
4355;SDS011;64374;51.482;7.408;2022-11-20T12:12:46;14.87;;;9.90;;
4355;SDS011;64374;51.482;7.408;2022-11-20T12:15:24;15.30;;;9.30;;
4355;SDS011;64374;51.482;7.408;2022-11-20T12:17:57;13.70;;;9.20;;
4355;SDS011;64374;51.482;7.408;2022-11-20T12:20:27;14.70;;;8.63;;
4355;SDS011;64374;51.482;7.408;2022-11-20T12:23:06;13.93;;;9.13;;
4355;SDS011;64374;51.482;7.408;2022-11-20T12:25:50;14.63;;;8.53;;
4355;SDS011;64374;51.482;7.408;2022-11-20T12:28:26;13.80;;;8.57;;
4355;SDS011;64374;51.482;7.408;2022-11-20T12:31:09;12.10;;;8.80;;
4355;SDS011;64374;51.482;7.408;2022-11-20T12:33:49;11.17;;;7.87;;
4355;SDS011;64374;51.482;7.408;2022-11-20T12:36:32;14.53;;;9.30;;
4355;SDS011;64374;51.482;7.408;2022-11-20T12:42:05;14.13;;;9.03;;
4355;SDS011;64374;51.482;7.408;2022-11-20T12:45:09;13.50;;;9.60;;
4355;SDS011;64374;51.482;7.408;2022-11-20T12:48:02;16.13;;;8.70;;
4355;SDS011;64374;51.482;7.408;2022-11-20T12:50:49;12.33;;;9.30;;
4355;SDS011;64374;51.482;7.408;2022-11-20T12:53:42;14.90;;;9.50;;
4355;SDS011;64374;51.482;7.408;2022-11-20T12:56:21;12.80;;;8.20;;
4355;SDS011;64374;51.482;7.408;2022-11-20T12:59:02;14.07;;;9.07;;
4355;SDS011;64374;51.482;7.408;2022-11-20T13:01:44;14.97;;;9.10;;
4355;SDS011;64374;51.482;7.408;2022-11-20T13:04:19;11.27;;;7.70;;
4355;SDS011;64374;51.482;7.408;2022-11-20T13:07:09;10.60;;;7.47;;
4355;SDS011;64374;51.482;7.408;2022-11-20T13:09:43;13.77;;;8.93;;
4355;SDS011;64374;51.482;7.408;2022-11-20T13:12:16;16.93;;;9.50;;
4355;SDS011;64374;51.482;7.408;2022-11-20T13:14:52;14.60;;;8.30;;
4355;SDS011;64374;51.482;7.408;2022-11-20T13:17:30;16.60;;;9.03;;
4355;SDS011;64374;51.482;7.408;2022-11-20T13:20:04;15.43;;;9.40;;
4355;SDS011;64374;51.482;7.408;2022-11-20T13:22:45;14.17;;;9.20;;
4355;SDS011;64374;51.482;7.408;2022-11-20T13:25:26;13.27;;;9.33;;
4355;SDS011;64374;51.482;7.408;2022-11-20T13:27:58;16.07;;;9.57;;
4355;SDS011;64374;51.482;7.408;2022-11-20T13:30:28;15.60;;;9.00;;
4355;SDS011;64374;51.482;7.408;2022-11-20T13:33:02;17.57;;;9.90;;
4355;SDS011;64374;51.482;7.408;2022-11-20T13:35:35;14.43;;;9.87;;
4355;SDS011;64374;51.482;7.408;2022-11-20T13:38:05;15.07;;;9.33;;
4355;SDS011;64374;51.482;7.408;2022-11-20T13:40:50;15.20;;;9.87;;
4355;SDS011;64374;51.482;7.408;2022-11-20T13:43:28;18.53;;;11.60;;
4355;SDS011;64374;51.482;7.408;2022-11-20T13:46:03;17.80;;;11.00;;
4355;SDS011;64374;51.482;7.408;2022-11-20T13:48:40;21.40;;;12.87;;
4355;SDS011;64374;51.482;7.408;2022-11-20T13:51:13;16.93;;;10.23;;
4355;SDS011;64374;51.482;7.408;2022-11-20T13:54:04;17.23;;;10.87;;
4355;SDS011;64374;51.482;7.408;2022-11-20T13:56:53;17.63;;;10.93;;
4355;SDS011;64374;51.482;7.408;2022-11-20T13:59:42;15.33;;;10.50;;
4355;SDS011;64374;51.482;7.408;2022-11-20T14:02:21;14.67;;;9.73;;
4355;SDS011;64374;51.482;7.408;2022-11-20T14:04:54;14.17;;;9.27;;
4355;SDS011;64374;51.482;7.408;2022-11-20T14:07:27;16.03;;;9.93;;
4355;SDS011;64374;51.482;7.408;2022-11-20T14:10:03;18.97;;;11.27;;
4355;SDS011;64374;51.482;7.408;2022-11-20T14:12:32;14.67;;;9.80;;
4355;SDS011;64374;51.482;7.408;2022-11-20T14:15:05;20.10;;;10.97;;
4355;SDS011;64374;51.482;7.408;2022-11-20T14:17:51;14.40;;;10.10;;
4355;SDS011;64374;51.482;7.408;2022-11-20T14:20:20;21.23;;;10.80;;
4355;SDS011;64374;51.482;7.408;2022-11-20T14:22:52;15.60;;;10.10;;
4355;SDS011;64374;51.482;7.408;2022-11-20T14:25:23;18.57;;;10.20;;
4355;SDS011;64374;51.482;7.408;2022-11-20T14:27:54;20.73;;;11.40;;
4355;SDS011;64374;51.482;7.408;2022-11-20T14:30:26;17.67;;;10.67;;
4355;SDS011;64374;51.482;7.408;2022-11-20T14:32:59;15.40;;;10.73;;
4355;SDS011;64374;51.482;7.408;2022-11-20T14:35:30;19.17;;;12.13;;
4355;SDS011;64374;51.482;7.408;2022-11-20T14:38:02;17.33;;;10.10;;
4355;SDS011;64374;51.482;7.408;2022-11-20T14:40:32;17.83;;;10.37;;
4355;SDS011;64374;51.482;7.408;2022-11-20T14:43:04;14.90;;;10.53;;
4355;SDS011;64374;51.482;7.408;2022-11-20T14:45:47;17.77;;;11.13;;
4355;SDS011;64374;51.482;7.408;2022-11-20T14:48:19;17.43;;;10.73;;
4355;SDS011;64374;51.482;7.408;2022-11-20T14:50:53;16.70;;;11.40;;
4355;SDS011;64374;51.482;7.408;2022-11-20T14:53:25;17.40;;;11.27;;
4355;SDS011;64374;51.482;7.408;2022-11-20T14:55:54;16.47;;;10.20;;
4355;SDS011;64374;51.482;7.408;2022-11-20T14:58:26;20.10;;;12.93;;
4355;SDS011;64374;51.482;7.408;2022-11-20T15:01:01;22.23;;;13.77;;
4355;SDS011;64374;51.482;7.408;2022-11-20T15:03:31;23.13;;;13.53;;
4355;SDS011;64374;51.482;7.408;2022-11-20T15:06:00;20.90;;;13.53;;
4355;SDS011;64374;51.482;7.408;2022-11-20T15:08:29;21.73;;;11.80;;
4355;SDS011;64374;51.482;7.408;2022-11-20T15:10:58;21.27;;;13.00;;
4355;SDS011;64374;51.482;7.408;2022-11-20T15:13:29;16.53;;;11.57;;
4355;SDS011;64374;51.482;7.408;2022-11-20T15:16:01;20.80;;;12.53;;
4355;SDS011;64374;51.482;7.408;2022-11-20T15:18:32;22.87;;;13.20;;